sensor_id;sensor_type;location;lat;lon;timestamp;P1;durP1;ratioP1;P2;durP2;ratioP2
77038;SDS011;65970;50.476;4.840;2024-01-11T00:04:24;13.07;;;7.67;;
77038;SDS011;65970;50.476;4.840;2024-01-11T00:09:24;10.50;;;5.90;;
77038;SDS011;65970;50.476;4.840;2024-01-11T00:14:25;10.93;;;6.37;;
77038;SDS011;65970;50.476;4.840;2024-01-11T00:19:25;8.43;;;5.97;;
77038;SDS011;65970;50.476;4.840;2024-01-11T00:24:26;13.40;;;6.10;;
77038;SDS011;65970;50.476;4.840;2024-01-11T00:29:26;10.93;;;6.13;;
77038;SDS011;65970;50.476;4.840;2024-01-11T00:34:27;8.80;;;5.47;;
77038;SDS011;65970;50.476;4.840;2024-01-11T00:39:27;10.30;;;5.63;;
77038;SDS011;65970;50.476;4.840;2024-01-11T00:44:28;13.83;;;6.90;;
77038;SDS011;65970;50.476;4.840;2024-01-11T00:49:29;18.23;;;6.57;;
77038;SDS011;65970;50.476;4.840;2024-01-11T00:54:29;14.33;;;7.63;;
77038;SDS011;65970;50.476;4.840;2024-01-11T00:59:30;18.00;;;8.37;;
77038;SDS011;65970;50.476;4.840;2024-01-11T01:04:30;12.57;;;7.30;;
77038;SDS011;65970;50.476;4.840;2024-01-11T01:09:31;11.27;;;6.63;;
77038;SDS011;65970;50.476;4.840;2024-01-11T01:14:31;11.33;;;6.33;;
77038;SDS011;65970;50.476;4.840;2024-01-11T01:19:32;8.10;;;4.77;;
77038;SDS011;65970;50.476;4.840;2024-01-11T01:24:32;11.07;;;5.03;;
77038;SDS011;65970;50.476;4.840;2024-01-11T01:29:33;10.33;;;6.87;;
77038;SDS011;65970;50.476;4.840;2024-01-11T01:34:36;8.67;;;5.60;;
77038;SDS011;65970;50.476;4.840;2024-01-11T01:39:37;8.70;;;6.18;;
77038;SDS011;65970;50.476;4.840;2024-01-11T01:44:38;11.20;;;6.17;;
77038;SDS011;65970;50.476;4.840;2024-01-11T01:49:39;13.80;;;7.33;;
77038;SDS011;65970;50.476;4.840;2024-01-11T01:54:39;11.23;;;6.63;;
77038;SDS011;65970;50.476;4.840;2024-01-11T01:59:40;11.07;;;6.77;;
77038;SDS011;65970;50.476;4.840;2024-01-11T02:04:41;12.33;;;6.80;;
77038;SDS011;65970;50.476;4.840;2024-01-11T02:09:42;9.67;;;6.73;;
77038;SDS011;65970;50.476;4.840;2024-01-11T02:14:44;11.37;;;6.20;;
77038;SDS011;65970;50.476;4.840;2024-01-11T02:19:44;9.67;;;5.23;;
77038;SDS011;65970;50.476;4.840;2024-01-11T02:24:45;8.33;;;6.03;;
77038;SDS011;65970;50.476;4.840;2024-01-11T02:29:46;14.07;;;6.50;;
77038;SDS011;65970;50.476;4.840;2024-01-11T02:34:47;6.33;;;5.17;;
77038;SDS011;65970;50.476;4.840;2024-01-11T02:39:48;9.10;;;6.30;;
77038;SDS011;65970;50.476;4.840;2024-01-11T02:44:48;11.43;;;5.40;;
77038;SDS011;65970;50.476;4.840;2024-01-11T02:49:49;14.03;;;7.13;;
77038;SDS011;65970;50.476;4.840;2024-01-11T02:54:50;10.80;;;5.97;;
77038;SDS011;65970;50.476;4.840;2024-01-11T02:59:51;7.97;;;5.60;;
77038;SDS011;65970;50.476;4.840;2024-01-11T03:04:51;11.77;;;6.13;;
77038;SDS011;65970;50.476;4.840;2024-01-11T03:09:52;9.83;;;6.83;;
77038;SDS011;65970;50.476;4.840;2024-01-11T03:14:52;20.30;;;7.17;;
77038;SDS011;65970;50.476;4.840;2024-01-11T03:19:53;11.57;;;6.83;;
77038;SDS011;65970;50.476;4.840;2024-01-11T03:24:53;10.77;;;5.10;;
77038;SDS011;65970;50.476;4.840;2024-01-11T03:29:54;12.07;;;6.13;;
77038;SDS011;65970;50.476;4.840;2024-01-11T03:34:55;10.63;;;5.70;;
77038;SDS011;65970;50.476;4.840;2024-01-11T03:39:55;13.27;;;7.80;;
77038;SDS011;65970;50.476;4.840;2024-01-11T03:44:56;11.40;;;6.87;;
77038;SDS011;65970;50.476;4.840;2024-01-11T03:49:56;17.17;;;6.83;;
77038;SDS011;65970;50.476;4.840;2024-01-11T03:54:57;9.83;;;7.07;;
77038;SDS011;65970;50.476;4.840;2024-01-11T03:59:57;6.30;;;5.27;;
77038;SDS011;65970;50.476;4.840;2024-01-11T04:04:58;14.33;;;7.20;;
77038;SDS011;65970;50.476;4.840;2024-01-11T04:09:59;12.30;;;6.83;;
77038;SDS011;65970;50.476;4.840;2024-01-11T04:14:59;9.37;;;5.07;;
77038;SDS011;65970;50.476;4.840;2024-01-11T04:20:00;9.90;;;5.30;;
77038;SDS011;65970;50.476;4.840;2024-01-11T04:25:00;12.43;;;6.20;;
77038;SDS011;65970;50.476;4.840;2024-01-11T04:30:01;10.33;;;5.90;;
77038;SDS011;65970;50.476;4.840;2024-01-11T04:35:02;9.00;;;6.33;;
77038;SDS011;65970;50.476;4.840;2024-01-11T04:40:02;13.47;;;8.13;;
77038;SDS011;65970;50.476;4.840;2024-01-11T04:45:03;9.80;;;7.07;;
77038;SDS011;65970;50.476;4.840;2024-01-11T04:50:04;14.37;;;6.27;;
77038;SDS011;65970;50.476;4.840;2024-01-11T04:55:05;14.17;;;6.97;;
77038;SDS011;65970;50.476;4.840;2024-01-11T05:00:06;10.70;;;7.10;;
77038;SDS011;65970;50.476;4.840;2024-01-11T05:05:07;11.47;;;6.00;;
77038;SDS011;65970;50.476;4.840;2024-01-11T05:10:08;9.60;;;6.17;;
77038;SDS011;65970;50.476;4.840;2024-01-11T05:15:09;13.37;;;6.43;;
77038;SDS011;65970;50.476;4.840;2024-01-11T05:20:09;10.23;;;6.47;;
77038;SDS011;65970;50.476;4.840;2024-01-11T05:25:10;8.87;;;5.80;;
77038;SDS011;65970;50.476;4.840;2024-01-11T05:30:11;12.63;;;7.83;;
77038;SDS011;65970;50.476;4.840;2024-01-11T05:35:12;10.23;;;6.10;;
77038;SDS011;65970;50.476;4.840;2024-01-11T05:40:12;14.03;;;6.27;;
77038;SDS011;65970;50.476;4.840;2024-01-11T05:45:13;10.97;;;6.17;;
77038;SDS011;65970;50.476;4.840;2024-01-11T05:50:13;8.83;;;5.67;;
77038;SDS011;65970;50.476;4.840;2024-01-11T05:55:15;10.27;;;6.37;;
77038;SDS011;65970;50.476;4.840;2024-01-11T06:00:15;14.60;;;5.97;;
77038;SDS011;65970;50.476;4.840;2024-01-11T06:05:16;9.97;;;6.03;;
77038;SDS011;65970;50.476;4.840;2024-01-11T06:10:17;11.93;;;5.67;;
77038;SDS011;65970;50.476;4.840;2024-01-11T06:15:17;11.23;;;6.37;;
77038;SDS011;65970;50.476;4.840;2024-01-11T06:20:18;12.13;;;6.63;;
77038;SDS011;65970;50.476;4.840;2024-01-11T06:25:18;10.63;;;6.57;;
77038;SDS011;65970;50.476;4.840;2024-01-11T06:30:19;12.00;;;5.93;;
77038;SDS011;65970;50.476;4.840;2024-01-11T06:35:19;12.63;;;6.43;;
77038;SDS011;65970;50.476;4.840;2024-01-11T06:40:20;11.73;;;6.73;;
77038;SDS011;65970;50.476;4.840;2024-01-11T06:45:21;6.73;;;5.13;;
77038;SDS011;65970;50.476;4.840;2024-01-11T06:50:21;12.97;;;8.47;;
77038;SDS011;65970;50.476;4.840;2024-01-11T06:55:22;15.13;;;6.40;;
77038;SDS011;65970;50.476;4.840;2024-01-11T07:00:22;8.70;;;5.57;;
77038;SDS011;65970;50.476;4.840;2024-01-11T07:05:23;13.20;;;5.77;;
77038;SDS011;65970;50.476;4.840;2024-01-11T07:10:23;11.77;;;6.23;;
77038;SDS011;65970;50.476;4.840;2024-01-11T07:15:24;12.50;;;7.07;;
77038;SDS011;65970;50.476;4.840;2024-01-11T07:20:24;16.97;;;8.60;;
77038;SDS011;65970;50.476;4.840;2024-01-11T07:25:25;11.07;;;6.73;;
77038;SDS011;65970;50.476;4.840;2024-01-11T07:30:26;9.70;;;6.27;;
77038;SDS011;65970;50.476;4.840;2024-01-11T07:35:26;8.57;;;5.93;;
77038;SDS011;65970;50.476;4.840;2024-01-11T07:40:27;13.43;;;6.90;;
77038;SDS011;65970;50.476;4.840;2024-01-11T07:45:27;10.90;;;6.30;;
77038;SDS011;65970;50.476;4.840;2024-01-11T07:50:28;16.60;;;7.97;;
77038;SDS011;65970;50.476;4.840;2024-01-11T07:55:29;12.33;;;7.10;;
77038;SDS011;65970;50.476;4.840;2024-01-11T08:00:30;13.70;;;6.23;;
77038;SDS011;65970;50.476;4.840;2024-01-11T08:05:30;10.00;;;6.13;;
77038;SDS011;65970;50.476;4.840;2024-01-11T08:10:31;9.83;;;5.03;;
77038;SDS011;65970;50.476;4.840;2024-01-11T08:15:31;8.37;;;5.17;;
77038;SDS011;65970;50.476;4.840;2024-01-11T08:20:32;11.30;;;4.97;;
77038;SDS011;65970;50.476;4.840;2024-01-11T08:25:32;9.20;;;6.27;;
77038;SDS011;65970;50.476;4.840;2024-01-11T08:30:33;8.83;;;6.50;;
77038;SDS011;65970;50.476;4.840;2024-01-11T08:35:33;11.27;;;5.30;;
77038;SDS011;65970;50.476;4.840;2024-01-11T08:40:34;11.73;;;6.63;;
77038;SDS011;65970;50.476;4.840;2024-01-11T08:45:35;9.33;;;5.83;;
77038;SDS011;65970;50.476;4.840;2024-01-11T08:50:38;9.57;;;5.93;;
77038;SDS011;65970;50.476;4.840;2024-01-11T08:55:38;9.30;;;6.07;;
77038;SDS011;65970;50.476;4.840;2024-01-11T09:00:39;9.03;;;5.07;;
77038;SDS011;65970;50.476;4.840;2024-01-11T09:05:39;12.37;;;7.43;;
77038;SDS011;65970;50.476;4.840;2024-01-11T09:10:40;11.90;;;6.83;;
77038;SDS011;65970;50.476;4.840;2024-01-11T09:15:41;10.47;;;5.40;;
77038;SDS011;65970;50.476;4.840;2024-01-11T09:20:42;10.93;;;6.77;;
77038;SDS011;65970;50.476;4.840;2024-01-11T09:25:42;14.10;;;7.53;;
77038;SDS011;65970;50.476;4.840;2024-01-11T09:30:43;11.27;;;7.03;;
77038;SDS011;65970;50.476;4.840;2024-01-11T09:35:43;13.33;;;9.03;;
77038;SDS011;65970;50.476;4.840;2024-01-11T09:40:44;10.77;;;6.23;;
77038;SDS011;65970;50.476;4.840;2024-01-11T09:45:45;9.87;;;5.37;;
77038;SDS011;65970;50.476;4.840;2024-01-11T09:50:46;9.97;;;5.17;;
77038;SDS011;65970;50.476;4.840;2024-01-11T09:55:47;11.70;;;6.27;;
77038;SDS011;65970;50.476;4.840;2024-01-11T10:00:49;12.60;;;5.37;;
77038;SDS011;65970;50.476;4.840;2024-01-11T10:05:54;9.40;;;6.90;;
77038;SDS011;65970;50.476;4.840;2024-01-11T10:10:58;9.57;;;6.10;;
77038;SDS011;65970;50.476;4.840;2024-01-11T10:16:08;7.70;;;4.83;;
77038;SDS011;65970;50.476;4.840;2024-01-11T10:21:09;5.80;;;4.07;;
77038;SDS011;65970;50.476;4.840;2024-01-11T10:26:10;11.53;;;6.30;;
77038;SDS011;65970;50.476;4.840;2024-01-11T10:31:11;9.10;;;5.13;;
77038;SDS011;65970;50.476;4.840;2024-01-11T10:36:11;12.80;;;6.43;;
77038;SDS011;65970;50.476;4.840;2024-01-11T10:41:12;9.60;;;5.33;;
77038;SDS011;65970;50.476;4.840;2024-01-11T10:46:14;16.23;;;6.77;;
77038;SDS011;65970;50.476;4.840;2024-01-11T10:51:16;8.20;;;4.47;;
77038;SDS011;65970;50.476;4.840;2024-01-11T10:56:22;13.60;;;7.07;;
77038;SDS011;65970;50.476;4.840;2024-01-11T11:01:23;5.37;;;4.50;;
77038;SDS011;65970;50.476;4.840;2024-01-11T11:06:26;7.50;;;4.27;;
77038;SDS011;65970;50.476;4.840;2024-01-11T11:11:27;10.60;;;4.53;;
77038;SDS011;65970;50.476;4.840;2024-01-11T11:16:28;6.50;;;4.37;;
77038;SDS011;65970;50.476;4.840;2024-01-11T11:21:29;7.67;;;4.67;;
77038;SDS011;65970;50.476;4.840;2024-01-11T11:26:31;5.00;;;3.47;;
77038;SDS011;65970;50.476;4.840;2024-01-11T11:31:42;5.78;;;4.82;;
77038;SDS011;65970;50.476;4.840;2024-01-11T11:36:45;9.40;;;4.43;;
77038;SDS011;65970;50.476;4.840;2024-01-11T11:41:47;1.33;;;1.23;;
77038;SDS011;65970;50.476;4.840;2024-01-11T11:46:47;9.53;;;5.17;;
77038;SDS011;65970;50.476;4.840;2024-01-11T11:51:48;5.90;;;4.10;;
77038;SDS011;65970;50.476;4.840;2024-01-11T11:56:49;7.67;;;4.70;;
77038;SDS011;65970;50.476;4.840;2024-01-11T12:01:51;2.97;;;1.70;;
77038;SDS011;65970;50.476;4.840;2024-01-11T12:06:52;7.97;;;3.93;;
77038;SDS011;65970;50.476;4.840;2024-01-11T12:11:53;5.10;;;3.50;;
77038;SDS011;65970;50.476;4.840;2024-01-11T12:16:57;5.03;;;3.50;;
77038;SDS011;65970;50.476;4.840;2024-01-11T12:21:58;10.03;;;5.00;;
77038;SDS011;65970;50.476;4.840;2024-01-11T12:27:00;6.00;;;3.40;;
77038;SDS011;65970;50.476;4.840;2024-01-11T12:32:01;5.03;;;2.70;;
77038;SDS011;65970;50.476;4.840;2024-01-11T12:37:02;5.20;;;3.00;;
77038;SDS011;65970;50.476;4.840;2024-01-11T12:42:02;8.15;;;4.32;;
77038;SDS011;65970;50.476;4.840;2024-01-11T12:47:03;5.37;;;2.93;;
77038;SDS011;65970;50.476;4.840;2024-01-11T12:52:04;5.07;;;3.33;;
77038;SDS011;65970;50.476;4.840;2024-01-11T12:57:04;8.63;;;5.00;;
77038;SDS011;65970;50.476;4.840;2024-01-11T13:02:05;6.17;;;3.87;;
77038;SDS011;65970;50.476;4.840;2024-01-11T13:07:06;7.53;;;3.67;;
77038;SDS011;65970;50.476;4.840;2024-01-11T13:12:07;6.50;;;2.77;;
77038;SDS011;65970;50.476;4.840;2024-01-11T13:17:08;6.13;;;3.87;;
77038;SDS011;65970;50.476;4.840;2024-01-11T13:22:08;8.97;;;4.90;;
77038;SDS011;65970;50.476;4.840;2024-01-11T13:27:09;5.80;;;3.00;;
77038;SDS011;65970;50.476;4.840;2024-01-11T13:32:09;10.27;;;4.00;;
77038;SDS011;65970;50.476;4.840;2024-01-11T13:37:10;10.77;;;3.67;;
77038;SDS011;65970;50.476;4.840;2024-01-11T13:42:10;5.93;;;3.53;;
77038;SDS011;65970;50.476;4.840;2024-01-11T13:47:11;4.45;;;2.63;;
77038;SDS011;65970;50.476;4.840;2024-01-11T13:52:12;5.82;;;3.38;;
77038;SDS011;65970;50.476;4.840;2024-01-11T13:57:12;7.72;;;4.30;;
77038;SDS011;65970;50.476;4.840;2024-01-11T14:02:13;5.73;;;3.90;;
77038;SDS011;65970;50.476;4.840;2024-01-11T14:07:13;7.68;;;5.05;;
77038;SDS011;65970;50.476;4.840;2024-01-11T14:12:14;6.33;;;4.00;;
77038;SDS011;65970;50.476;4.840;2024-01-11T14:17:14;5.53;;;3.33;;
77038;SDS011;65970;50.476;4.840;2024-01-11T14:22:15;8.13;;;4.45;;
77038;SDS011;65970;50.476;4.840;2024-01-11T14:27:15;8.23;;;4.78;;
77038;SDS011;65970;50.476;4.840;2024-01-11T14:32:16;7.38;;;4.50;;
77038;SDS011;65970;50.476;4.840;2024-01-11T14:37:17;7.35;;;4.75;;
77038;SDS011;65970;50.476;4.840;2024-01-11T14:42:17;7.30;;;4.53;;
77038;SDS011;65970;50.476;4.840;2024-01-11T14:47:18;5.97;;;5.13;;
77038;SDS011;65970;50.476;4.840;2024-01-11T14:52:19;6.20;;;4.30;;
77038;SDS011;65970;50.476;4.840;2024-01-11T14:57:20;9.18;;;5.43;;
77038;SDS011;65970;50.476;4.840;2024-01-11T15:02:20;6.22;;;4.38;;
77038;SDS011;65970;50.476;4.840;2024-01-11T15:07:21;6.18;;;4.63;;
77038;SDS011;65970;50.476;4.840;2024-01-11T15:12:21;5.30;;;4.50;;
77038;SDS011;65970;50.476;4.840;2024-01-11T15:17:22;10.95;;;4.55;;
77038;SDS011;65970;50.476;4.840;2024-01-11T15:22:23;7.90;;;4.60;;
77038;SDS011;65970;50.476;4.840;2024-01-11T15:27:24;7.43;;;4.85;;
77038;SDS011;65970;50.476;4.840;2024-01-11T15:32:24;8.73;;;6.10;;
77038;SDS011;65970;50.476;4.840;2024-01-11T15:37:25;5.80;;;3.75;;
77038;SDS011;65970;50.476;4.840;2024-01-11T15:42:26;4.90;;;3.80;;
77038;SDS011;65970;50.476;4.840;2024-01-11T15:47:26;9.70;;;5.68;;
77038;SDS011;65970;50.476;4.840;2024-01-11T15:52:27;5.38;;;3.97;;
77038;SDS011;65970;50.476;4.840;2024-01-11T15:57:27;9.90;;;5.25;;
77038;SDS011;65970;50.476;4.840;2024-01-11T16:02:28;6.78;;;4.40;;
77038;SDS011;65970;50.476;4.840;2024-01-11T16:07:29;7.93;;;4.75;;
77038;SDS011;65970;50.476;4.840;2024-01-11T16:12:29;8.90;;;4.97;;
77038;SDS011;65970;50.476;4.840;2024-01-11T16:17:30;6.63;;;4.55;;
77038;SDS011;65970;50.476;4.840;2024-01-11T16:22:30;8.27;;;5.15;;
77038;SDS011;65970;50.476;4.840;2024-01-11T16:27:31;9.05;;;5.80;;
77038;SDS011;65970;50.476;4.840;2024-01-11T16:32:31;6.40;;;3.67;;
77038;SDS011;65970;50.476;4.840;2024-01-11T16:37:32;6.00;;;4.82;;
77038;SDS011;65970;50.476;4.840;2024-01-11T16:42:33;7.85;;;4.97;;
77038;SDS011;65970;50.476;4.840;2024-01-11T16:47:33;7.18;;;4.35;;
77038;SDS011;65970;50.476;4.840;2024-01-11T16:52:34;5.68;;;3.88;;
77038;SDS011;65970;50.476;4.840;2024-01-11T16:57:34;4.93;;;4.25;;
77038;SDS011;65970;50.476;4.840;2024-01-11T17:02:35;9.07;;;5.22;;
77038;SDS011;65970;50.476;4.840;2024-01-11T17:07:35;6.30;;;3.90;;
77038;SDS011;65970;50.476;4.840;2024-01-11T17:12:36;7.55;;;4.15;;
77038;SDS011;65970;50.476;4.840;2024-01-11T17:17:36;7.40;;;4.72;;
77038;SDS011;65970;50.476;4.840;2024-01-11T17:22:37;7.32;;;4.43;;
77038;SDS011;65970;50.476;4.840;2024-01-11T17:27:37;8.13;;;4.82;;
77038;SDS011;65970;50.476;4.840;2024-01-11T17:32:38;11.00;;;6.03;;
77038;SDS011;65970;50.476;4.840;2024-01-11T17:37:39;8.65;;;5.28;;
77038;SDS011;65970;50.476;4.840;2024-01-11T17:42:39;7.78;;;4.95;;
77038;SDS011;65970;50.476;4.840;2024-01-11T17:47:41;11.40;;;5.72;;
77038;SDS011;65970;50.476;4.840;2024-01-11T17:52:42;6.68;;;4.88;;
77038;SDS011;65970;50.476;4.840;2024-01-11T17:57:42;9.88;;;6.65;;
77038;SDS011;65970;50.476;4.840;2024-01-11T18:02:43;12.98;;;5.90;;
77038;SDS011;65970;50.476;4.840;2024-01-11T18:07:43;11.88;;;7.13;;
77038;SDS011;65970;50.476;4.840;2024-01-11T18:12:44;10.25;;;6.65;;
77038;SDS011;65970;50.476;4.840;2024-01-11T18:17:45;10.05;;;6.97;;
77038;SDS011;65970;50.476;4.840;2024-01-11T18:22:45;12.20;;;7.22;;
77038;SDS011;65970;50.476;4.840;2024-01-11T18:27:46;11.32;;;6.78;;
77038;SDS011;65970;50.476;4.840;2024-01-11T18:32:46;13.57;;;7.72;;
77038;SDS011;65970;50.476;4.840;2024-01-11T18:37:47;13.40;;;7.32;;
77038;SDS011;65970;50.476;4.840;2024-01-11T18:42:47;12.40;;;7.85;;
77038;SDS011;65970;50.476;4.840;2024-01-11T18:47:48;16.08;;;9.40;;
77038;SDS011;65970;50.476;4.840;2024-01-11T18:52:48;10.07;;;6.82;;
77038;SDS011;65970;50.476;4.840;2024-01-11T18:57:49;13.30;;;8.27;;
77038;SDS011;65970;50.476;4.840;2024-01-11T19:02:50;10.38;;;6.57;;
77038;SDS011;65970;50.476;4.840;2024-01-11T19:07:50;9.57;;;6.15;;
77038;SDS011;65970;50.476;4.840;2024-01-11T19:12:51;13.18;;;7.20;;
77038;SDS011;65970;50.476;4.840;2024-01-11T19:17:51;10.43;;;6.60;;
77038;SDS011;65970;50.476;4.840;2024-01-11T19:22:52;10.82;;;7.30;;
77038;SDS011;65970;50.476;4.840;2024-01-11T19:27:52;11.52;;;6.80;;
77038;SDS011;65970;50.476;4.840;2024-01-11T19:32:53;10.27;;;6.93;;
77038;SDS011;65970;50.476;4.840;2024-01-11T19:37:54;10.95;;;7.10;;
77038;SDS011;65970;50.476;4.840;2024-01-11T19:42:55;13.48;;;6.28;;
77038;SDS011;65970;50.476;4.840;2024-01-11T19:47:55;10.10;;;7.47;;
77038;SDS011;65970;50.476;4.840;2024-01-11T19:52:56;10.98;;;6.82;;
77038;SDS011;65970;50.476;4.840;2024-01-11T19:57:56;10.40;;;7.75;;
77038;SDS011;65970;50.476;4.840;2024-01-11T20:02:57;10.43;;;6.82;;
77038;SDS011;65970;50.476;4.840;2024-01-11T20:07:58;10.57;;;6.47;;
77038;SDS011;65970;50.476;4.840;2024-01-11T20:12:58;7.45;;;6.40;;
77038;SDS011;65970;50.476;4.840;2024-01-11T20:17:59;8.35;;;5.25;;
77038;SDS011;65970;50.476;4.840;2024-01-11T20:23:00;11.70;;;6.85;;
77038;SDS011;65970;50.476;4.840;2024-01-11T20:28:00;10.15;;;7.40;;
77038;SDS011;65970;50.476;4.840;2024-01-11T20:33:01;11.82;;;7.63;;
77038;SDS011;65970;50.476;4.840;2024-01-11T20:38:02;11.73;;;7.00;;
77038;SDS011;65970;50.476;4.840;2024-01-11T20:43:02;12.82;;;8.45;;
77038;SDS011;65970;50.476;4.840;2024-01-11T20:48:03;9.48;;;6.80;;
77038;SDS011;65970;50.476;4.840;2024-01-11T20:53:04;10.30;;;6.55;;
77038;SDS011;65970;50.476;4.840;2024-01-11T20:58:07;11.48;;;7.32;;
77038;SDS011;65970;50.476;4.840;2024-01-11T21:08:08;10.80;;;4.50;;
77038;SDS011;65970;50.476;4.840;2024-01-11T21:13:09;9.23;;;6.60;;
77038;SDS011;65970;50.476;4.840;2024-01-11T21:18:09;13.95;;;7.10;;
77038;SDS011;65970;50.476;4.840;2024-01-11T21:23:10;9.07;;;6.82;;
77038;SDS011;65970;50.476;4.840;2024-01-11T21:28:11;11.65;;;6.65;;
77038;SDS011;65970;50.476;4.840;2024-01-11T21:33:11;8.98;;;5.53;;
77038;SDS011;65970;50.476;4.840;2024-01-11T21:38:12;11.80;;;8.15;;
77038;SDS011;65970;50.476;4.840;2024-01-11T21:43:12;14.45;;;8.13;;
77038;SDS011;65970;50.476;4.840;2024-01-11T21:48:13;13.68;;;8.85;;
77038;SDS011;65970;50.476;4.840;2024-01-11T21:53:13;8.38;;;6.35;;
77038;SDS011;65970;50.476;4.840;2024-01-11T21:58:14;8.75;;;5.47;;
77038;SDS011;65970;50.476;4.840;2024-01-11T22:03:14;6.18;;;4.72;;
77038;SDS011;65970;50.476;4.840;2024-01-11T22:08:15;12.15;;;7.38;;
77038;SDS011;65970;50.476;4.840;2024-01-11T22:13:15;10.07;;;7.25;;
77038;SDS011;65970;50.476;4.840;2024-01-11T22:18:16;11.27;;;6.45;;
77038;SDS011;65970;50.476;4.840;2024-01-11T22:23:17;13.57;;;6.65;;
77038;SDS011;65970;50.476;4.840;2024-01-11T22:28:17;12.98;;;7.43;;
77038;SDS011;65970;50.476;4.840;2024-01-11T22:33:18;8.13;;;5.57;;
77038;SDS011;65970;50.476;4.840;2024-01-11T22:38:18;8.05;;;5.75;;
77038;SDS011;65970;50.476;4.840;2024-01-11T22:43:19;8.05;;;4.95;;
77038;SDS011;65970;50.476;4.840;2024-01-11T22:48:19;10.00;;;6.13;;
77038;SDS011;65970;50.476;4.840;2024-01-11T22:53:20;7.97;;;5.63;;
77038;SDS011;65970;50.476;4.840;2024-01-11T22:58:20;13.35;;;8.40;;
77038;SDS011;65970;50.476;4.840;2024-01-11T23:03:21;11.68;;;7.35;;
77038;SDS011;65970;50.476;4.840;2024-01-11T23:08:22;13.73;;;8.45;;
77038;SDS011;65970;50.476;4.840;2024-01-11T23:13:23;14.07;;;7.68;;
77038;SDS011;65970;50.476;4.840;2024-01-11T23:18:23;11.70;;;6.80;;
77038;SDS011;65970;50.476;4.840;2024-01-11T23:23:24;9.77;;;6.60;;
77038;SDS011;65970;50.476;4.840;2024-01-11T23:28:24;9.70;;;7.15;;
77038;SDS011;65970;50.476;4.840;2024-01-11T23:33:25;10.05;;;6.75;;
77038;SDS011;65970;50.476;4.840;2024-01-11T23:38:25;14.30;;;7.28;;
77038;SDS011;65970;50.476;4.840;2024-01-11T23:43:26;8.40;;;5.72;;
77038;SDS011;65970;50.476;4.840;2024-01-11T23:48:26;12.30;;;7.10;;
77038;SDS011;65970;50.476;4.840;2024-01-11T23:53:27;8.50;;;5.15;;
77038;SDS011;65970;50.476;4.840;2024-01-11T23:58:27;13.65;;;6.55;;
